sensor_id;sensor_type;location;lat;lon;timestamp;pressure;altitude;pressure_sealevel;temperature
71960;BMP280;59832;51.146;14.024;2023-06-10T04:02:32;98283.75;;;16.05
71960;BMP280;59832;51.146;14.024;2023-06-10T04:04:59;98280.34;;;16.22
71960;BMP280;59832;51.146;14.024;2023-06-10T04:07:26;98287.66;;;16.27
71960;BMP280;59832;51.146;14.024;2023-06-10T04:09:56;98284.34;;;16.30
71960;BMP280;59832;51.146;14.024;2023-06-10T04:12:22;98289.78;;;16.40
71960;BMP280;59832;51.146;14.024;2023-06-10T04:14:49;98300.31;;;16.56
71960;BMP280;59832;51.146;14.024;2023-06-10T04:17:15;98291.31;;;16.74
71960;BMP280;59832;51.146;14.024;2023-06-10T04:19:42;98284.22;;;16.89
71960;BMP280;59832;51.146;14.024;2023-06-10T04:22:09;98289.63;;;17.02
71960;BMP280;59832;51.146;14.024;2023-06-10T04:24:35;98286.53;;;17.17
71960;BMP280;59832;51.146;14.024;2023-06-10T04:27:01;98286.13;;;17.19
71960;BMP280;59832;51.146;14.024;2023-06-10T04:29:29;98287.25;;;17.18
71960;BMP280;59832;51.146;14.024;2023-06-10T04:31:55;98279.41;;;17.32
71960;BMP280;59832;51.146;14.024;2023-06-10T04:34:22;98288.41;;;17.47
71960;BMP280;59832;51.146;14.024;2023-06-10T04:36:49;98293.06;;;17.56
71960;BMP280;59832;51.146;14.024;2023-06-10T04:39:17;98288.19;;;17.91
71960;BMP280;59832;51.146;14.024;2023-06-10T04:41:43;98285.81;;;18.04
71960;BMP280;59832;51.146;14.024;2023-06-10T04:44:10;98284.81;;;18.21
71960;BMP280;59832;51.146;14.024;2023-06-10T04:46:37;98277.59;;;18.59
71960;BMP280;59832;51.146;14.024;2023-06-10T04:49:03;98279.06;;;18.99
71960;BMP280;59832;51.146;14.024;2023-06-10T04:51:31;98276.03;;;19.04
71960;BMP280;59832;51.146;14.024;2023-06-10T04:54:00;98280.25;;;19.34
71960;BMP280;59832;51.146;14.024;2023-06-10T04:56:30;98287.94;;;19.38
71960;BMP280;59832;51.146;14.024;2023-06-10T04:58:57;98287.88;;;19.22
71960;BMP280;59832;51.146;14.024;2023-06-10T05:01:24;98292.75;;;19.55
71960;BMP280;59832;51.146;14.024;2023-06-10T05:03:50;98295.78;;;19.50
71960;BMP280;59832;51.146;14.024;2023-06-10T05:06:17;98303.56;;;19.83
71960;BMP280;59832;51.146;14.024;2023-06-10T05:08:43;98289.56;;;20.16
71960;BMP280;59832;51.146;14.024;2023-06-10T05:11:10;98292.13;;;20.16
71960;BMP280;59832;51.146;14.024;2023-06-10T05:13:36;98290.16;;;20.36
71960;BMP280;59832;51.146;14.024;2023-06-10T05:16:03;98289.88;;;20.47
71960;BMP280;59832;51.146;14.024;2023-06-10T05:18:30;98293.47;;;20.20
71960;BMP280;59832;51.146;14.024;2023-06-10T05:20:57;98288.56;;;20.26
71960;BMP280;59832;51.146;14.024;2023-06-10T05:23:23;98297.84;;;19.91
71960;BMP280;59832;51.146;14.024;2023-06-10T05:25:50;98296.06;;;19.88
71960;BMP280;59832;51.146;14.024;2023-06-10T05:28:17;98297.88;;;20.07
71960;BMP280;59832;51.146;14.024;2023-06-10T05:30:43;98301.41;;;19.81
71960;BMP280;59832;51.146;14.024;2023-06-10T05:33:09;98308.34;;;19.84
71960;BMP280;59832;51.146;14.024;2023-06-10T05:35:36;98308.09;;;19.79
71960;BMP280;59832;51.146;14.024;2023-06-10T05:38:03;98304.84;;;20.39
71960;BMP280;59832;51.146;14.024;2023-06-10T05:40:29;98301.75;;;20.15
71960;BMP280;59832;51.146;14.024;2023-06-10T05:42:56;98314.75;;;20.57
71960;BMP280;59832;51.146;14.024;2023-06-10T05:45:22;98306.72;;;20.96
71960;BMP280;59832;51.146;14.024;2023-06-10T05:47:48;98309.06;;;21.19
71960;BMP280;59832;51.146;14.024;2023-06-10T05:50:15;98308.06;;;20.59
71960;BMP280;59832;51.146;14.024;2023-06-10T05:52:42;98305.88;;;20.58
71960;BMP280;59832;51.146;14.024;2023-06-10T05:55:08;98310.53;;;20.92
71960;BMP280;59832;51.146;14.024;2023-06-10T05:57:36;98312.25;;;21.23
71960;BMP280;59832;51.146;14.024;2023-06-10T06:00:03;98308.03;;;21.29
71960;BMP280;59832;51.146;14.024;2023-06-10T06:02:29;98309.59;;;20.57
71960;BMP280;59832;51.146;14.024;2023-06-10T06:04:56;98307.47;;;20.68
71960;BMP280;59832;51.146;14.024;2023-06-10T06:07:22;98309.13;;;21.03
71960;BMP280;59832;51.146;14.024;2023-06-10T06:09:49;98306.78;;;21.34
71960;BMP280;59832;51.146;14.024;2023-06-10T06:12:15;98306.91;;;21.30
71960;BMP280;59832;51.146;14.024;2023-06-10T06:14:42;98298.97;;;21.09
71960;BMP280;59832;51.146;14.024;2023-06-10T06:17:08;98307.72;;;21.65
71960;BMP280;59832;51.146;14.024;2023-06-10T06:19:35;98302.84;;;21.67
71960;BMP280;59832;51.146;14.024;2023-06-10T06:22:03;98310.91;;;21.31
71960;BMP280;59832;51.146;14.024;2023-06-10T06:24:30;98318.16;;;21.11
71960;BMP280;59832;51.146;14.024;2023-06-10T06:26:58;98321.78;;;21.52
71960;BMP280;59832;51.146;14.024;2023-06-10T06:29:24;98325.50;;;20.84
71960;BMP280;59832;51.146;14.024;2023-06-10T06:31:51;98324.47;;;20.82
71960;BMP280;59832;51.146;14.024;2023-06-10T06:34:18;98320.31;;;21.13
71960;BMP280;59832;51.146;14.024;2023-06-10T06:36:44;98327.50;;;21.59
71960;BMP280;59832;51.146;14.024;2023-06-10T06:39:11;98320.72;;;21.24
71960;BMP280;59832;51.146;14.024;2023-06-10T06:41:38;98324.19;;;21.46
71960;BMP280;59832;51.146;14.024;2023-06-10T06:44:04;98324.41;;;21.64
71960;BMP280;59832;51.146;14.024;2023-06-10T06:46:31;98326.13;;;22.05
71960;BMP280;59832;51.146;14.024;2023-06-10T06:48:57;98333.47;;;23.06
71960;BMP280;59832;51.146;14.024;2023-06-10T06:51:24;98328.63;;;21.20
71960;BMP280;59832;51.146;14.024;2023-06-10T06:53:50;98332.81;;;21.56
71960;BMP280;59832;51.146;14.024;2023-06-10T06:56:17;98337.03;;;21.62
71960;BMP280;59832;51.146;14.024;2023-06-10T06:58:43;98343.66;;;21.88
71960;BMP280;59832;51.146;14.024;2023-06-10T07:01:10;98342.44;;;21.55
71960;BMP280;59832;51.146;14.024;2023-06-10T07:03:37;98348.09;;;22.69
71960;BMP280;59832;51.146;14.024;2023-06-10T07:06:03;98344.75;;;22.69
71960;BMP280;59832;51.146;14.024;2023-06-10T07:08:30;98343.94;;;22.72
71960;BMP280;59832;51.146;14.024;2023-06-10T07:10:56;98354.94;;;22.41
71960;BMP280;59832;51.146;14.024;2023-06-10T07:13:23;98356.44;;;23.16
71960;BMP280;59832;51.146;14.024;2023-06-10T07:15:49;98362.81;;;22.50
71960;BMP280;59832;51.146;14.024;2023-06-10T07:18:15;98362.72;;;22.41
71960;BMP280;59832;51.146;14.024;2023-06-10T07:20:45;98371.59;;;22.53
71960;BMP280;59832;51.146;14.024;2023-06-10T07:23:11;98365.81;;;22.02
71960;BMP280;59832;51.146;14.024;2023-06-10T07:25:38;98364.97;;;22.18
71960;BMP280;59832;51.146;14.024;2023-06-10T07:28:04;98362.16;;;22.81
71960;BMP280;59832;51.146;14.024;2023-06-10T07:30:31;98361.00;;;23.03
71960;BMP280;59832;51.146;14.024;2023-06-10T07:32:57;98361.44;;;23.02
71960;BMP280;59832;51.146;14.024;2023-06-10T07:35:24;98369.22;;;22.58
71960;BMP280;59832;51.146;14.024;2023-06-10T07:37:50;98367.91;;;22.76
71960;BMP280;59832;51.146;14.024;2023-06-10T07:40:17;98379.84;;;22.39
71960;BMP280;59832;51.146;14.024;2023-06-10T07:42:43;98376.16;;;23.05
71960;BMP280;59832;51.146;14.024;2023-06-10T07:45:10;98370.72;;;22.90
71960;BMP280;59832;51.146;14.024;2023-06-10T07:47:37;98374.81;;;22.57
71960;BMP280;59832;51.146;14.024;2023-06-10T07:50:04;98377.50;;;22.66
71960;BMP280;59832;51.146;14.024;2023-06-10T07:52:30;98378.28;;;23.19
71960;BMP280;59832;51.146;14.024;2023-06-10T07:54:57;98368.03;;;23.64
71960;BMP280;59832;51.146;14.024;2023-06-10T07:57:23;98371.53;;;23.31
71960;BMP280;59832;51.146;14.024;2023-06-10T07:59:50;98392.31;;;23.31
71960;BMP280;59832;51.146;14.024;2023-06-10T08:02:17;98386.41;;;23.39
71960;BMP280;59832;51.146;14.024;2023-06-10T08:04:43;98379.91;;;23.04
71960;BMP280;59832;51.146;14.024;2023-06-10T08:07:10;98380.88;;;23.19
71960;BMP280;59832;51.146;14.024;2023-06-10T08:09:36;98383.88;;;23.48
71960;BMP280;59832;51.146;14.024;2023-06-10T08:12:03;98387.59;;;23.78
71960;BMP280;59832;51.146;14.024;2023-06-10T08:14:29;98384.59;;;24.07
71960;BMP280;59832;51.146;14.024;2023-06-10T08:16:56;98393.28;;;24.04
71960;BMP280;59832;51.146;14.024;2023-06-10T08:19:22;98387.97;;;23.67
71960;BMP280;59832;51.146;14.024;2023-06-10T08:21:49;98383.84;;;23.08
71960;BMP280;59832;51.146;14.024;2023-06-10T08:24:15;98385.75;;;23.48
71960;BMP280;59832;51.146;14.024;2023-06-10T08:26:45;98386.59;;;23.94
71960;BMP280;59832;51.146;14.024;2023-06-10T08:29:12;98383.66;;;23.73
71960;BMP280;59832;51.146;14.024;2023-06-10T08:31:42;98384.06;;;24.39
71960;BMP280;59832;51.146;14.024;2023-06-10T08:34:09;98389.09;;;24.24
71960;BMP280;59832;51.146;14.024;2023-06-10T08:36:36;98393.69;;;24.93
71960;BMP280;59832;51.146;14.024;2023-06-10T08:39:03;98394.63;;;24.63
71960;BMP280;59832;51.146;14.024;2023-06-10T08:41:33;98392.00;;;24.63
71960;BMP280;59832;51.146;14.024;2023-06-10T08:44:10;98388.75;;;24.95
71960;BMP280;59832;51.146;14.024;2023-06-10T08:46:42;98380.03;;;24.38
71960;BMP280;59832;51.146;14.024;2023-06-10T08:49:10;98381.69;;;24.77
71960;BMP280;59832;51.146;14.024;2023-06-10T08:51:37;98378.88;;;24.66
71960;BMP280;59832;51.146;14.024;2023-06-10T08:54:26;98381.56;;;24.08
71960;BMP280;59832;51.146;14.024;2023-06-10T08:56:55;98390.41;;;24.65
71960;BMP280;59832;51.146;14.024;2023-06-10T08:59:22;98381.19;;;24.28
71960;BMP280;59832;51.146;14.024;2023-06-10T09:01:49;98384.31;;;24.86
71960;BMP280;59832;51.146;14.024;2023-06-10T09:04:16;98375.22;;;25.56
71960;BMP280;59832;51.146;14.024;2023-06-10T09:06:44;98374.47;;;25.32
71960;BMP280;59832;51.146;14.024;2023-06-10T09:09:14;98377.09;;;24.63
71960;BMP280;59832;51.146;14.024;2023-06-10T09:11:42;98382.03;;;24.61
71960;BMP280;59832;51.146;14.024;2023-06-10T09:14:09;98381.41;;;23.84
71960;BMP280;59832;51.146;14.024;2023-06-10T09:16:38;98375.06;;;24.58
71960;BMP280;59832;51.146;14.024;2023-06-10T09:19:05;98377.63;;;24.94
71960;BMP280;59832;51.146;14.024;2023-06-10T09:21:34;98383.03;;;25.56
71960;BMP280;59832;51.146;14.024;2023-06-10T09:24:05;98383.06;;;25.14
71960;BMP280;59832;51.146;14.024;2023-06-10T09:26:31;98377.72;;;25.74
71960;BMP280;59832;51.146;14.024;2023-06-10T09:29:05;98378.13;;;25.26
71960;BMP280;59832;51.146;14.024;2023-06-10T09:31:35;98376.06;;;25.30
71960;BMP280;59832;51.146;14.024;2023-06-10T09:34:12;98384.38;;;25.01
71960;BMP280;59832;51.146;14.024;2023-06-10T09:36:38;98386.38;;;25.80
71960;BMP280;59832;51.146;14.024;2023-06-10T09:39:14;98383.97;;;25.92
71960;BMP280;59832;51.146;14.024;2023-06-10T09:41:42;98396.22;;;25.20
71960;BMP280;59832;51.146;14.024;2023-06-10T09:44:18;98393.97;;;25.04
71960;BMP280;59832;51.146;14.024;2023-06-10T09:46:48;98392.81;;;25.38
71960;BMP280;59832;51.146;14.024;2023-06-10T09:49:16;98394.63;;;25.23
71960;BMP280;59832;51.146;14.024;2023-06-10T09:51:50;98391.72;;;25.53
71960;BMP280;59832;51.146;14.024;2023-06-10T09:54:17;98399.75;;;24.99
71960;BMP280;59832;51.146;14.024;2023-06-10T09:56:50;98397.66;;;25.21
71960;BMP280;59832;51.146;14.024;2023-06-10T09:59:30;98390.84;;;24.55
71960;BMP280;59832;51.146;14.024;2023-06-10T10:01:58;98395.13;;;24.85
71960;BMP280;59832;51.146;14.024;2023-06-10T10:04:27;98399.16;;;25.69
71960;BMP280;59832;51.146;14.024;2023-06-10T10:06:55;98403.00;;;26.07
71960;BMP280;59832;51.146;14.024;2023-06-10T10:09:21;98395.97;;;26.36
71960;BMP280;59832;51.146;14.024;2023-06-10T10:11:48;98390.13;;;26.27
71960;BMP280;59832;51.146;14.024;2023-06-10T10:14:16;98393.09;;;24.98
71960;BMP280;59832;51.146;14.024;2023-06-10T10:16:44;98387.34;;;25.27
71960;BMP280;59832;51.146;14.024;2023-06-10T10:19:18;98394.53;;;24.99
71960;BMP280;59832;51.146;14.024;2023-06-10T10:21:52;98389.34;;;24.99
71960;BMP280;59832;51.146;14.024;2023-06-10T10:24:26;98383.34;;;25.49
71960;BMP280;59832;51.146;14.024;2023-06-10T10:26:58;98387.41;;;26.50
71960;BMP280;59832;51.146;14.024;2023-06-10T10:29:30;98381.97;;;26.10
71960;BMP280;59832;51.146;14.024;2023-06-10T10:31:59;98375.63;;;25.64
71960;BMP280;59832;51.146;14.024;2023-06-10T10:34:32;98379.75;;;25.05
71960;BMP280;59832;51.146;14.024;2023-06-10T10:37:00;98373.78;;;25.23
71960;BMP280;59832;51.146;14.024;2023-06-10T10:39:26;98371.47;;;26.19
71960;BMP280;59832;51.146;14.024;2023-06-10T10:41:55;98387.09;;;25.57
71960;BMP280;59832;51.146;14.024;2023-06-10T10:44:23;98366.03;;;25.94
71960;BMP280;59832;51.146;14.024;2023-06-10T10:46:51;98375.50;;;25.82
71960;BMP280;59832;51.146;14.024;2023-06-10T10:49:18;98364.91;;;26.24
71960;BMP280;59832;51.146;14.024;2023-06-10T10:51:59;98376.47;;;26.08
71960;BMP280;59832;51.146;14.024;2023-06-10T10:54:29;98364.41;;;25.72
71960;BMP280;59832;51.146;14.024;2023-06-10T10:57:18;98367.13;;;26.16
71960;BMP280;59832;51.146;14.024;2023-06-10T10:59:51;98368.88;;;26.63
71960;BMP280;59832;51.146;14.024;2023-06-10T11:02:19;98363.66;;;26.48
71960;BMP280;59832;51.146;14.024;2023-06-10T11:04:58;98363.00;;;26.10
71960;BMP280;59832;51.146;14.024;2023-06-10T11:07:25;98362.63;;;26.02
71960;BMP280;59832;51.146;14.024;2023-06-10T11:10:08;98368.22;;;26.10
71960;BMP280;59832;51.146;14.024;2023-06-10T11:13:05;98352.66;;;26.15
71960;BMP280;59832;51.146;14.024;2023-06-10T11:15:32;98360.03;;;26.31
71960;BMP280;59832;51.146;14.024;2023-06-10T11:18:06;98367.34;;;26.42
71960;BMP280;59832;51.146;14.024;2023-06-10T11:28:38;98354.56;;;26.59
71960;BMP280;59832;51.146;14.024;2023-06-10T11:31:05;98353.03;;;25.84
71960;BMP280;59832;51.146;14.024;2023-06-10T11:33:32;98346.78;;;25.67
71960;BMP280;59832;51.146;14.024;2023-06-10T11:35:59;98348.34;;;25.50
71960;BMP280;59832;51.146;14.024;2023-06-10T11:38:26;98353.97;;;25.72
71960;BMP280;59832;51.146;14.024;2023-06-10T11:40:52;98346.34;;;25.03
71960;BMP280;59832;51.146;14.024;2023-06-10T11:43:19;98347.00;;;25.22
71960;BMP280;59832;51.146;14.024;2023-06-10T11:45:46;98341.31;;;25.33
71960;BMP280;59832;51.146;14.024;2023-06-10T11:48:12;98344.72;;;25.15
71960;BMP280;59832;51.146;14.024;2023-06-10T11:50:39;98349.59;;;25.22
71960;BMP280;59832;51.146;14.024;2023-06-10T11:53:08;98349.00;;;25.83
71960;BMP280;59832;51.146;14.024;2023-06-10T11:55:45;98333.63;;;25.85
71960;BMP280;59832;51.146;14.024;2023-06-10T11:58:19;98346.66;;;25.85
71960;BMP280;59832;51.146;14.024;2023-06-10T12:00:53;98345.63;;;26.21
71960;BMP280;59832;51.146;14.024;2023-06-10T12:03:20;98335.59;;;26.58
71960;BMP280;59832;51.146;14.024;2023-06-10T12:06:02;98347.84;;;27.36
71960;BMP280;59832;51.146;14.024;2023-06-10T12:08:29;98338.72;;;26.77
71960;BMP280;59832;51.146;14.024;2023-06-10T12:10:56;98328.69;;;26.90
71960;BMP280;59832;51.146;14.024;2023-06-10T12:13:26;98323.97;;;26.59
71960;BMP280;59832;51.146;14.024;2023-06-10T12:15:53;98332.09;;;26.46
71960;BMP280;59832;51.146;14.024;2023-06-10T12:18:23;98320.47;;;26.18
71960;BMP280;59832;51.146;14.024;2023-06-10T12:20:50;98331.78;;;26.30
71960;BMP280;59832;51.146;14.024;2023-06-10T12:23:18;98328.72;;;26.31
71960;BMP280;59832;51.146;14.024;2023-06-10T12:25:55;98317.84;;;26.18
71960;BMP280;59832;51.146;14.024;2023-06-10T12:28:26;98315.88;;;26.42
71960;BMP280;59832;51.146;14.024;2023-06-10T12:31:13;98315.63;;;26.26
71960;BMP280;59832;51.146;14.024;2023-06-10T12:33:39;98318.19;;;26.70
71960;BMP280;59832;51.146;14.024;2023-06-10T12:36:16;98321.63;;;27.10
71960;BMP280;59832;51.146;14.024;2023-06-10T12:38:42;98316.91;;;26.94
71960;BMP280;59832;51.146;14.024;2023-06-10T12:41:10;98302.63;;;27.30
71960;BMP280;59832;51.146;14.024;2023-06-10T12:43:37;98299.50;;;26.71
71960;BMP280;59832;51.146;14.024;2023-06-10T12:46:09;98319.09;;;27.16
71960;BMP280;59832;51.146;14.024;2023-06-10T12:48:36;98310.66;;;26.92
71960;BMP280;59832;51.146;14.024;2023-06-10T12:51:03;98314.25;;;26.60
71960;BMP280;59832;51.146;14.024;2023-06-10T12:53:32;98307.50;;;27.02
71960;BMP280;59832;51.146;14.024;2023-06-10T12:55:58;98300.13;;;26.51
71960;BMP280;59832;51.146;14.024;2023-06-10T12:58:27;98302.84;;;26.42
71960;BMP280;59832;51.146;14.024;2023-06-10T13:00:54;98296.53;;;26.49
71960;BMP280;59832;51.146;14.024;2023-06-10T13:03:21;98294.16;;;26.80
71960;BMP280;59832;51.146;14.024;2023-06-10T13:05:48;98306.41;;;26.74
71960;BMP280;59832;51.146;14.024;2023-06-10T13:08:14;98296.19;;;26.27
71960;BMP280;59832;51.146;14.024;2023-06-10T13:10:41;98301.00;;;25.90
71960;BMP280;59832;51.146;14.024;2023-06-10T13:13:08;98291.19;;;26.14
71960;BMP280;59832;51.146;14.024;2023-06-10T13:15:36;98284.41;;;26.17
71960;BMP280;59832;51.146;14.024;2023-06-10T13:18:08;98304.41;;;25.96
71960;BMP280;59832;51.146;14.024;2023-06-10T13:20:35;98301.00;;;26.05
71960;BMP280;59832;51.146;14.024;2023-06-10T13:23:02;98298.66;;;25.92
71960;BMP280;59832;51.146;14.024;2023-06-10T13:25:28;98304.38;;;25.81
71960;BMP280;59832;51.146;14.024;2023-06-10T13:27:55;98287.72;;;25.64
71960;BMP280;59832;51.146;14.024;2023-06-10T13:30:22;98291.97;;;25.76
71960;BMP280;59832;51.146;14.024;2023-06-10T13:32:48;98288.03;;;25.96
71960;BMP280;59832;51.146;14.024;2023-06-10T13:35:15;98293.06;;;25.84
71960;BMP280;59832;51.146;14.024;2023-06-10T13:37:41;98300.13;;;26.22
71960;BMP280;59832;51.146;14.024;2023-06-10T13:40:08;98288.38;;;25.74
71960;BMP280;59832;51.146;14.024;2023-06-10T13:42:36;98284.47;;;25.93
71960;BMP280;59832;51.146;14.024;2023-06-10T13:45:04;98286.84;;;25.82
71960;BMP280;59832;51.146;14.024;2023-06-10T13:47:30;98287.44;;;26.15
71960;BMP280;59832;51.146;14.024;2023-06-10T13:49:57;98282.50;;;26.32
71960;BMP280;59832;51.146;14.024;2023-06-10T13:52:24;98287.78;;;26.08
71960;BMP280;59832;51.146;14.024;2023-06-10T13:54:50;98285.03;;;26.26
71960;BMP280;59832;51.146;14.024;2023-06-10T13:57:17;98285.44;;;25.96
71960;BMP280;59832;51.146;14.024;2023-06-10T13:59:43;98285.09;;;26.03
71960;BMP280;59832;51.146;14.024;2023-06-10T14:02:10;98272.38;;;25.96
71960;BMP280;59832;51.146;14.024;2023-06-10T14:04:36;98279.63;;;26.15
71960;BMP280;59832;51.146;14.024;2023-06-10T14:07:03;98283.03;;;26.21
71960;BMP280;59832;51.146;14.024;2023-06-10T14:09:30;98292.31;;;26.37
71960;BMP280;59832;51.146;14.024;2023-06-10T14:11:56;98283.41;;;26.29
71960;BMP280;59832;51.146;14.024;2023-06-10T14:14:23;98278.81;;;26.24
71960;BMP280;59832;51.146;14.024;2023-06-10T14:16:49;98280.75;;;25.85
71960;BMP280;59832;51.146;14.024;2023-06-10T14:19:16;98282.22;;;26.15
71960;BMP280;59832;51.146;14.024;2023-06-10T14:21:42;98276.38;;;26.06
71960;BMP280;59832;51.146;14.024;2023-06-10T14:24:09;98282.06;;;26.19
71960;BMP280;59832;51.146;14.024;2023-06-10T14:26:35;98274.75;;;26.08
71960;BMP280;59832;51.146;14.024;2023-06-10T14:29:02;98279.25;;;25.93
71960;BMP280;59832;51.146;14.024;2023-06-10T14:31:28;98285.63;;;25.77
71960;BMP280;59832;51.146;14.024;2023-06-10T14:33:55;98270.31;;;25.47
71960;BMP280;59832;51.146;14.024;2023-06-10T14:36:21;98272.13;;;25.32
71960;BMP280;59832;51.146;14.024;2023-06-10T14:38:48;98283.28;;;25.08
71960;BMP280;59832;51.146;14.024;2023-06-10T14:41:15;98279.47;;;25.42
71960;BMP280;59832;51.146;14.024;2023-06-10T14:43:41;98285.69;;;25.83
71960;BMP280;59832;51.146;14.024;2023-06-10T14:46:07;98277.00;;;25.86
71960;BMP280;59832;51.146;14.024;2023-06-10T14:48:34;98282.41;;;25.59
71960;BMP280;59832;51.146;14.024;2023-06-10T14:51:01;98275.06;;;25.48
71960;BMP280;59832;51.146;14.024;2023-06-10T14:53:28;98275.22;;;25.68
71960;BMP280;59832;51.146;14.024;2023-06-10T14:55:54;98275.63;;;25.76
71960;BMP280;59832;51.146;14.024;2023-06-10T14:58:21;98275.72;;;25.43
71960;BMP280;59832;51.146;14.024;2023-06-10T15:00:47;98267.38;;;25.54
71960;BMP280;59832;51.146;14.024;2023-06-10T15:03:14;98275.81;;;25.87
71960;BMP280;59832;51.146;14.024;2023-06-10T15:05:40;98266.41;;;25.66
71960;BMP280;59832;51.146;14.024;2023-06-10T15:08:07;98265.84;;;25.85
71960;BMP280;59832;51.146;14.024;2023-06-10T15:10:33;98260.19;;;26.02
71960;BMP280;59832;51.146;14.024;2023-06-10T15:13:00;98261.84;;;25.75
71960;BMP280;59832;51.146;14.024;2023-06-10T15:15:26;98255.13;;;25.98
71960;BMP280;59832;51.146;14.024;2023-06-10T15:17:53;98260.81;;;26.11
71960;BMP280;59832;51.146;14.024;2023-06-10T15:20:20;98258.84;;;26.06
71960;BMP280;59832;51.146;14.024;2023-06-10T15:22:46;98264.50;;;25.90
71960;BMP280;59832;51.146;14.024;2023-06-10T15:25:13;98253.25;;;26.13
71960;BMP280;59832;51.146;14.024;2023-06-10T15:27:43;98264.44;;;26.28
71960;BMP280;59832;51.146;14.024;2023-06-10T15:30:10;98260.81;;;26.11
71960;BMP280;59832;51.146;14.024;2023-06-10T15:32:36;98259.03;;;26.03
71960;BMP280;59832;51.146;14.024;2023-06-10T15:35:03;98259.47;;;26.16
71960;BMP280;59832;51.146;14.024;2023-06-10T15:37:29;98258.34;;;25.78
71960;BMP280;59832;51.146;14.024;2023-06-10T15:39:56;98261.59;;;25.88
71960;BMP280;59832;51.146;14.024;2023-06-10T15:42:23;98251.72;;;25.92
71960;BMP280;59832;51.146;14.024;2023-06-10T15:44:50;98263.69;;;25.99
71960;BMP280;59832;51.146;14.024;2023-06-10T15:47:19;98250.09;;;25.95
71960;BMP280;59832;51.146;14.024;2023-06-10T15:49:46;98246.00;;;26.03
71960;BMP280;59832;51.146;14.024;2023-06-10T15:52:13;98257.81;;;25.89
71960;BMP280;59832;51.146;14.024;2023-06-10T15:54:39;98255.06;;;26.07
71960;BMP280;59832;51.146;14.024;2023-06-10T15:57:06;98255.25;;;26.33
71960;BMP280;59832;51.146;14.024;2023-06-10T15:59:34;98258.22;;;26.26
71960;BMP280;59832;51.146;14.024;2023-06-10T16:02:01;98258.75;;;26.30
71960;BMP280;59832;51.146;14.024;2023-06-10T16:04:27;98261.44;;;26.35
71960;BMP280;59832;51.146;14.024;2023-06-10T16:06:54;98262.06;;;26.01
71960;BMP280;59832;51.146;14.024;2023-06-10T16:09:20;98272.50;;;26.16
71960;BMP280;59832;51.146;14.024;2023-06-10T16:11:47;98272.63;;;25.68
71960;BMP280;59832;51.146;14.024;2023-06-10T16:14:13;98271.53;;;25.60
71960;BMP280;59832;51.146;14.024;2023-06-10T16:16:40;98271.97;;;25.35
71960;BMP280;59832;51.146;14.024;2023-06-10T16:19:06;98280.91;;;25.43
71960;BMP280;59832;51.146;14.024;2023-06-10T16:21:33;98281.00;;;25.49
71960;BMP280;59832;51.146;14.024;2023-06-10T16:23:59;98276.19;;;25.33
71960;BMP280;59832;51.146;14.024;2023-06-10T16:26:26;98278.06;;;25.08
71960;BMP280;59832;51.146;14.024;2023-06-10T16:28:53;98274.28;;;25.09
71960;BMP280;59832;51.146;14.024;2023-06-10T16:31:19;98271.97;;;25.35
71960;BMP280;59832;51.146;14.024;2023-06-10T16:33:46;98270.22;;;25.41
71960;BMP280;59832;51.146;14.024;2023-06-10T16:36:13;98275.28;;;25.36
71960;BMP280;59832;51.146;14.024;2023-06-10T16:38:39;98278.78;;;25.09
71960;BMP280;59832;51.146;14.024;2023-06-10T16:41:06;98266.88;;;25.17
71960;BMP280;59832;51.146;14.024;2023-06-10T16:43:33;98265.81;;;25.00
71960;BMP280;59832;51.146;14.024;2023-06-10T16:45:59;98277.31;;;25.17
71960;BMP280;59832;51.146;14.024;2023-06-10T16:48:26;98272.81;;;25.17
71960;BMP280;59832;51.146;14.024;2023-06-10T16:50:52;98277.00;;;25.62
71960;BMP280;59832;51.146;14.024;2023-06-10T16:53:19;98278.41;;;25.49
71960;BMP280;59832;51.146;14.024;2023-06-10T16:55:45;98284.66;;;25.66
71960;BMP280;59832;51.146;14.024;2023-06-10T16:58:12;98289.50;;;25.58
71960;BMP280;59832;51.146;14.024;2023-06-10T17:00:39;98285.34;;;25.90
71960;BMP280;59832;51.146;14.024;2023-06-10T17:03:07;98290.22;;;25.97
71960;BMP280;59832;51.146;14.024;2023-06-10T17:05:34;98284.22;;;25.67
71960;BMP280;59832;51.146;14.024;2023-06-10T17:08:01;98295.81;;;25.66
71960;BMP280;59832;51.146;14.024;2023-06-10T17:10:28;98293.66;;;25.41
71960;BMP280;59832;51.146;14.024;2023-06-10T17:12:54;98300.13;;;25.22
71960;BMP280;59832;51.146;14.024;2023-06-10T17:15:21;98302.31;;;25.24
71960;BMP280;59832;51.146;14.024;2023-06-10T17:17:47;98307.28;;;25.36
71960;BMP280;59832;51.146;14.024;2023-06-10T17:20:15;98307.09;;;25.16
71960;BMP280;59832;51.146;14.024;2023-06-10T17:22:43;98307.56;;;25.05
71960;BMP280;59832;51.146;14.024;2023-06-10T17:25:09;98308.81;;;25.19
71960;BMP280;59832;51.146;14.024;2023-06-10T17:27:36;98316.91;;;25.21
71960;BMP280;59832;51.146;14.024;2023-06-10T17:30:03;98317.94;;;25.24
71960;BMP280;59832;51.146;14.024;2023-06-10T17:32:29;98316.63;;;25.52
71960;BMP280;59832;51.146;14.024;2023-06-10T17:34:57;98321.19;;;26.19
71960;BMP280;59832;51.146;14.024;2023-06-10T17:37:23;98318.44;;;25.99
71960;BMP280;59832;51.146;14.024;2023-06-10T17:39:49;98318.75;;;25.53
71960;BMP280;59832;51.146;14.024;2023-06-10T17:42:16;98321.69;;;25.46
71960;BMP280;59832;51.146;14.024;2023-06-10T17:44:43;98310.66;;;24.95
71960;BMP280;59832;51.146;14.024;2023-06-10T17:47:09;98321.38;;;24.88
71960;BMP280;59832;51.146;14.024;2023-06-10T17:49:36;98318.13;;;24.60
71960;BMP280;59832;51.146;14.024;2023-06-10T17:52:02;98330.16;;;24.58
71960;BMP280;59832;51.146;14.024;2023-06-10T17:54:29;98322.75;;;24.56
71960;BMP280;59832;51.146;14.024;2023-06-10T17:56:55;98324.69;;;24.37
71960;BMP280;59832;51.146;14.024;2023-06-10T17:59:22;98327.41;;;24.34
71960;BMP280;59832;51.146;14.024;2023-06-10T18:01:48;98326.56;;;24.10
71960;BMP280;59832;51.146;14.024;2023-06-10T18:04:15;98333.03;;;23.96
71960;BMP280;59832;51.146;14.024;2023-06-10T18:06:41;98329.53;;;23.81
71960;BMP280;59832;51.146;14.024;2023-06-10T18:09:08;98324.91;;;23.76